Etusivu
Satelliittikuvat 10 päivän ennusteetIlmastoMerisää Syklonit Salamointi LentoasematUKK Uutiskirje Muuta
Sää : Eurooppa Afrikka Pohjois-Amerikka Etelä-Amerikka Aasia Australia-Oseania Muut
Kielet Yhteydenotto

Kittilä, Suomi

Kittilän lentoasema

Leveyspiiri: 67-42N, Pituuspiiri: 024-51E, korkeus merenpinnasta: 196 m


METAR: EFKT 061720Z AUTO 13005KT 070V190 CAVOK 12/05 Q1008
TAF: EFKT 060824Z 0609/0611 13005KT 9999 -RA BKN050

Aika: 20:58 (17:58 UTC)

Tämänhetkinen sää

Tämä raportti tehtiin 38 minuuttia sitten, kello 17.20 UTC
Tuuli 5 kn kaakosta, vaihdellen idän/koillisen ja etelän välillä
Lämpötila 12°C
Kosteus 62%
Ilmanpaine 1008 hPa
Näkyvyys 10 km tai enemmän
ei pilviä alle 1500 m:ssä eikä cumulonimbus-pilviä

Muuta yksikköjä

Sääennuste

Tämä raportti tehtiin 9 tuntia ja 34 minuuttia sitten, kello 08.24 UTC
Ennuste voimassa 06. päivästä klo 09 UTC - 06. päivään klo 11 UTC
Tuuli 5 kn kaakosta
Näkyvyys 10 km tai enemmän
Hajonneita pilviä 5000 ft:n korkeudessa
heikkoa sadetta
Tällä sivustolla oleviin tietoihin sovelletaan vastuuvapauslauseketta
Sää : Eurooppa Afrikka Pohjois-Amerikka Etelä-Amerikka Aasia Australia-Oseania Muut
Satelliittikuvat 10 päivän ennusteetIlmastoMerisää Syklonit Salamointi LentoasematUKK Kielet Yhteydenotto Uutiskirje Muuta